Rankin, North Carolina
Current Conditions -  °F | °C
As of 10:54 PM on Saturday 24 Jan 2015 (Local Time) from KGSO Reporting Station
Clear Clear  
Wind Chill: 29°   Ceiling: Unl
Heat Index: 36°   Visibility: 10mi
Dew Point: 24°   Wind: 9mph
Humidity: 62%   Direction: 280°W
Pressure: 29.79"   Gusts: NA
Location:  36.1157°N, 79.7378°W
Report Text: KGSO 250354Z 28008KT 10SM CLR 02/M04 A2979 RMK AO2 SLP090 T00221044
Loading
Personal Weather Stations






























Interactive Weather Map New forecast layout! Learn more

10-Day Weather Forecast

Advertisements
Track Severe Weather on mobile